Bludenz, Austria
Current Conditions -  °F | °C
As of 8:20 PM on Thursday 29 Jan 2015 (Local Time) from LSZR Reporting Station
Broken Clouds Broken Clouds  
Wind Chill: 34°   Ceiling: 8000
Heat Index: 37°   Visibility: 6mi
Dew Point: 34°   Wind: 5mph
Humidity: 87%   Direction: 260°W
Pressure: 29.06"   Gusts: NA
Location:  47.16°N, 9.82°E
Report Text: LSZR 291820Z 26004KT 9999 FEW050 SCT060 BKN080 03/01 Q0984 NOSIG RMK U
Loading
Personal Weather Stations






























Interactive Weather Map New forecast layout! Learn more

10-Day Weather Forecast

Advertisements
Track Severe Weather on mobile